createdAt,value
2022-12-20T00:01:31.532Z,18.07
2022-12-20T00:04:02.454Z,19.40
2022-12-20T00:06:30.133Z,18.20
2022-12-20T00:09:00.773Z,18.23
2022-12-20T00:11:29.020Z,19.50
2022-12-20T00:13:57.150Z,17.57
2022-12-20T00:16:27.525Z,17.43
2022-12-20T00:18:57.843Z,15.57
2022-12-20T00:21:25.554Z,16.03
2022-12-20T00:23:53.961Z,16.30
2022-12-20T00:26:25.646Z,17.23
2022-12-20T00:28:53.685Z,16.03
2022-12-20T00:31:22.838Z,15.77
2022-12-20T00:33:52.198Z,14.97
2022-12-20T00:36:20.744Z,15.47
2022-12-20T00:38:50.895Z,15.60
2022-12-20T00:41:25.690Z,14.67
2022-12-20T00:43:53.692Z,15.00
2022-12-20T00:46:24.807Z,14.87
2022-12-20T00:48:53.847Z,14.50
2022-12-20T00:51:24.852Z,14.80
2022-12-20T00:53:52.885Z,14.90
2022-12-20T00:56:20.443Z,14.33
2022-12-20T00:58:47.636Z,15.27
2022-12-20T01:01:24.868Z,14.07
2022-12-20T01:03:53.094Z,14.07
2022-12-20T01:06:21.863Z,14.30
2022-12-20T01:08:48.997Z,14.37
2022-12-20T01:11:30.624Z,15.03
2022-12-20T01:14:02.171Z,15.50
2022-12-20T01:16:42.458Z,14.10
2022-12-20T01:19:13.799Z,13.40
2022-12-20T01:21:44.792Z,15.03
2022-12-20T01:24:18.103Z,15.83
2022-12-20T01:26:46.017Z,14.93
2022-12-20T01:29:14.560Z,14.77
2022-12-20T01:31:43.407Z,14.73
2022-12-20T01:34:11.530Z,14.60
2022-12-20T01:36:39.266Z,14.67
2022-12-20T01:39:11.994Z,15.50
2022-12-20T01:41:40.730Z,14.37
2022-12-20T01:44:16.787Z,15.03
2022-12-20T01:46:46.320Z,12.87
2022-12-20T01:49:22.876Z,14.10
2022-12-20T01:52:16.259Z,14.77
2022-12-20T01:54:52.189Z,14.73
2022-12-20T01:57:36.386Z,14.10
2022-12-20T02:00:05.587Z,15.20
2022-12-20T02:02:42.711Z,15.30
2022-12-20T02:05:11.593Z,15.03
2022-12-20T02:07:39.450Z,12.90
2022-12-20T02:10:08.186Z,13.43
2022-12-20T02:12:45.440Z,14.67
2022-12-20T02:15:31.831Z,15.10
2022-12-20T02:18:44.684Z,14.03
2022-12-20T02:21:28.934Z,13.53
2022-12-20T02:24:04.777Z,13.27
2022-12-20T02:27:09.373Z,13.63
2022-12-20T02:30:07.179Z,13.73
2022-12-20T02:32:46.823Z,14.27
2022-12-20T02:35:21.541Z,12.57
2022-12-20T02:37:58.858Z,13.07
2022-12-20T02:40:40.205Z,13.60
2022-12-20T02:43:28.692Z,12.77
2022-12-20T02:45:59.630Z,13.47
2022-12-20T02:48:32.682Z,13.90
2022-12-20T02:51:01.937Z,11.90
2022-12-20T02:53:29.764Z,12.53
2022-12-20T02:56:22.148Z,13.13
2022-12-20T02:59:07.721Z,12.27
2022-12-20T03:01:41.853Z,13.53
2022-12-20T03:04:09.477Z,12.87
2022-12-20T03:06:40.271Z,12.77
2022-12-20T03:09:07.381Z,12.27
2022-12-20T03:11:37.063Z,12.07
2022-12-20T03:14:04.009Z,12.37
2022-12-20T03:16:31.094Z,11.77
2022-12-20T03:18:58.121Z,11.70
2022-12-20T03:21:25.091Z,12.13
2022-12-20T03:23:52.080Z,12.87
2022-12-20T03:26:19.082Z,12.00
2022-12-20T03:28:51.479Z,11.83
2022-12-20T03:31:21.321Z,10.60
2022-12-20T03:33:52.101Z,11.63
2022-12-20T03:36:23.606Z,12.60
2022-12-20T03:38:55.992Z,10.90
2022-12-20T03:41:25.923Z,11.33
2022-12-20T03:43:53.422Z,10.93
2022-12-20T03:46:22.172Z,12.80
2022-12-20T03:48:49.301Z,11.43
2022-12-20T03:51:16.339Z,10.77
2022-12-20T03:53:43.452Z,11.10
2022-12-20T03:56:11.201Z,11.83
2022-12-20T03:58:39.407Z,11.90
2022-12-20T04:01:28.925Z,11.87
2022-12-20T04:03:57.032Z,12.03
2022-12-20T04:06:24.605Z,11.33
2022-12-20T04:08:51.938Z,11.57
2022-12-20T04:11:26.293Z,11.57
2022-12-20T04:14:04.442Z,11.23
2022-12-20T04:16:32.494Z,11.50
2022-12-20T04:19:00.945Z,12.07
2022-12-20T04:21:34.981Z,12.30
2022-12-20T04:24:04.728Z,11.93
2022-12-20T04:26:40.767Z,11.10
2022-12-20T04:29:08.696Z,11.47
2022-12-20T04:31:36.521Z,10.27
2022-12-20T04:34:03.904Z,12.10
2022-12-20T04:36:32.963Z,10.77
2022-12-20T04:39:03.176Z,10.67
2022-12-20T04:41:37.513Z,10.93
2022-12-20T04:44:09.995Z,10.70
2022-12-20T04:46:38.219Z,12.87
2022-12-20T04:49:09.007Z,12.40
2022-12-20T04:51:39.831Z,11.40
2022-12-20T04:54:06.973Z,10.90
2022-12-20T04:56:42.858Z,11.70
2022-12-20T04:59:12.720Z,10.17
2022-12-20T05:01:42.661Z,10.77
2022-12-20T05:04:10.930Z,11.07
2022-12-20T05:06:38.660Z,10.17
2022-12-20T05:09:05.919Z,10.23
2022-12-20T05:11:34.118Z,12.17
2022-12-20T05:14:03.092Z,11.30
2022-12-20T05:16:30.255Z,11.33
2022-12-20T05:18:58.247Z,11.53
2022-12-20T05:21:44.453Z,10.40
2022-12-20T05:24:29.941Z,10.00
2022-12-20T05:27:23.016Z,10.20
2022-12-20T05:29:50.497Z,10.23
2022-12-20T05:32:17.631Z,9.37
2022-12-20T05:34:44.667Z,10.47
2022-12-20T05:37:11.860Z,10.50
2022-12-20T05:39:40.850Z,10.60
2022-12-20T05:42:14.472Z,10.20
2022-12-20T05:44:41.653Z,10.33
2022-12-20T05:47:09.018Z,10.47
2022-12-20T05:49:37.419Z,9.87
2022-12-20T05:52:07.889Z,10.10
2022-12-20T05:54:36.638Z,10.13
2022-12-20T05:57:08.129Z,9.90
2022-12-20T05:59:37.977Z,9.97
2022-12-20T06:02:08.203Z,10.03
2022-12-20T06:04:38.274Z,10.23
2022-12-20T06:07:13.341Z,10.33
2022-12-20T06:09:40.939Z,10.73
2022-12-20T06:12:12.636Z,9.77
2022-12-20T06:14:40.132Z,9.77
2022-12-20T06:17:07.223Z,10.17
2022-12-20T06:19:34.669Z,10.40
2022-12-20T06:22:03.529Z,10.93
2022-12-20T06:24:47.974Z,10.40
2022-12-20T06:27:15.939Z,10.70
2022-12-20T06:29:49.487Z,10.97
2022-12-20T06:32:16.781Z,11.30
2022-12-20T06:34:44.461Z,10.37
2022-12-20T06:37:12.467Z,10.40
2022-12-20T06:39:41.966Z,10.37
2022-12-20T06:42:09.470Z,10.60
2022-12-20T06:44:39.060Z,10.00
2022-12-20T06:47:06.179Z,10.77
2022-12-20T06:49:33.209Z,10.00
2022-12-20T06:52:01.368Z,11.33
2022-12-20T06:54:38.429Z,10.93
2022-12-20T06:57:06.911Z,11.17
2022-12-20T06:59:35.353Z,10.80
2022-12-20T07:02:02.798Z,12.47
2022-12-20T07:04:30.013Z,11.33
2022-12-20T07:06:59.709Z,10.97
2022-12-20T07:09:26.690Z,11.73
2022-12-20T07:11:53.714Z,12.50
2022-12-20T07:14:20.708Z,10.30
2022-12-20T07:16:47.761Z,11.40
2022-12-20T07:19:15.696Z,10.20
2022-12-20T07:21:43.734Z,10.60
2022-12-20T07:24:10.969Z,10.13
2022-12-20T07:26:37.986Z,9.60
2022-12-20T07:29:07.310Z,10.40
2022-12-20T07:31:36.285Z,10.03
2022-12-20T07:34:03.249Z,12.47
2022-12-20T07:36:30.302Z,11.60
2022-12-20T07:38:58.178Z,11.53
2022-12-20T07:41:25.255Z,11.23
2022-12-20T07:43:52.311Z,10.33
2022-12-20T07:46:19.883Z,10.40
2022-12-20T07:48:47.065Z,10.23
2022-12-20T07:51:26.517Z,10.53
2022-12-20T07:54:02.695Z,11.13
2022-12-20T07:56:40.532Z,11.33
2022-12-20T07:59:10.633Z,10.97
2022-12-20T08:01:38.004Z,10.87
2022-12-20T08:04:15.402Z,10.33
2022-12-20T08:06:43.066Z,11.07
2022-12-20T08:09:14.714Z,11.63
2022-12-20T08:11:45.918Z,11.47
2022-12-20T08:14:13.452Z,12.27
2022-12-20T08:16:40.550Z,11.13
2022-12-20T08:19:07.692Z,12.57
2022-12-20T08:21:34.757Z,14.33
2022-12-20T08:24:01.884Z,12.73
2022-12-20T08:26:28.942Z,11.50
2022-12-20T08:28:56.405Z,11.30
2022-12-20T08:31:24.297Z,11.63
2022-12-20T08:33:55.253Z,12.23
2022-12-20T08:36:22.433Z,12.13
2022-12-20T08:38:49.446Z,12.30
2022-12-20T08:41:17.137Z,12.10
2022-12-20T08:43:44.280Z,13.00
2022-12-20T08:46:12.661Z,11.83
2022-12-20T08:48:40.467Z,11.43
2022-12-20T08:51:10.675Z,11.77
2022-12-20T08:53:38.149Z,12.10
2022-12-20T08:56:12.150Z,12.57
2022-12-20T08:58:40.613Z,11.30
2022-12-20T09:01:11.770Z,11.57
2022-12-20T09:03:40.510Z,12.30
2022-12-20T09:06:10.971Z,13.63
2022-12-20T09:08:39.620Z,13.77
2022-12-20T09:11:14.110Z,14.63
2022-12-20T09:13:44.413Z,14.90
2022-12-20T09:16:14.636Z,15.30
2022-12-20T09:18:42.524Z,14.87
2022-12-20T09:21:11.177Z,14.73
2022-12-20T09:23:39.968Z,14.63
2022-12-20T09:26:12.456Z,14.17
2022-12-20T09:28:40.033Z,15.53
2022-12-20T09:31:14.925Z,13.47
2022-12-20T09:33:42.774Z,14.80
2022-12-20T09:36:17.611Z,13.40
2022-12-20T09:38:45.760Z,13.60
2022-12-20T09:41:35.261Z,13.43
2022-12-20T09:44:12.346Z,14.07
2022-12-20T09:46:41.537Z,13.50
2022-12-20T09:49:17.955Z,12.93
2022-12-20T09:51:57.094Z,12.63
2022-12-20T09:54:50.648Z,12.80
2022-12-20T09:57:32.735Z,14.07
2022-12-20T09:59:59.839Z,13.27
2022-12-20T10:05:35.571Z,12.53
2022-12-20T10:08:44.929Z,12.40
2022-12-20T10:11:26.947Z,13.20
2022-12-20T10:14:28.378Z,12.93
2022-12-20T10:17:12.376Z,13.77
2022-12-20T10:19:54.369Z,13.13
2022-12-20T10:22:29.145Z,12.57
2022-12-20T10:25:14.578Z,13.77
2022-12-20T10:27:47.329Z,12.77
2022-12-20T10:30:27.100Z,13.53
2022-12-20T10:32:58.346Z,13.67
2022-12-20T10:35:33.447Z,13.53
2022-12-20T10:38:12.874Z,13.87
2022-12-20T10:43:44.677Z,14.70
2022-12-20T10:46:13.435Z,14.70
2022-12-20T10:48:43.764Z,14.00
2022-12-20T10:51:15.719Z,13.77
2022-12-20T10:54:03.425Z,14.87
2022-12-20T10:56:38.717Z,14.57
2022-12-20T10:59:17.910Z,14.37
2022-12-20T11:01:47.591Z,15.27
2022-12-20T11:04:36.744Z,15.07
2022-12-20T11:07:30.105Z,15.13
2022-12-20T11:10:28.522Z,14.53
2022-12-20T11:12:57.772Z,16.43
2022-12-20T11:15:33.881Z,15.03
2022-12-20T11:18:57.727Z,14.43
2022-12-20T11:21:42.046Z,16.27
2022-12-20T11:24:33.869Z,15.00
2022-12-20T11:27:16.119Z,14.63
2022-12-20T11:30:08.263Z,14.13
2022-12-20T11:33:21.450Z,14.23
2022-12-20T11:36:07.450Z,15.70
2022-12-20T11:39:08.901Z,15.17
2022-12-20T11:42:04.286Z,14.90
2022-12-20T11:45:21.756Z,14.93
2022-12-20T11:47:54.169Z,15.10
2022-12-20T11:50:38.120Z,14.27
2022-12-20T11:53:18.893Z,13.67
2022-12-20T11:55:49.864Z,13.40
2022-12-20T11:58:24.089Z,13.67
2022-12-20T12:01:08.037Z,13.93
2022-12-20T12:03:43.105Z,14.37
2022-12-20T12:06:20.532Z,14.00
2022-12-20T12:09:43.357Z,14.17
2022-12-20T12:12:25.149Z,14.73
2022-12-20T12:15:16.899Z,14.77
2022-12-20T12:18:20.539Z,16.03
2022-12-20T12:21:09.982Z,14.00
2022-12-20T12:23:52.243Z,14.10
2022-12-20T12:26:31.789Z,15.07
2022-12-20T12:29:20.455Z,15.50
2022-12-20T12:32:24.476Z,14.53
2022-12-20T12:35:08.245Z,14.40
2022-12-20T12:37:41.246Z,14.00
2022-12-20T12:40:26.490Z,15.10
2022-12-20T12:43:02.468Z,14.23
2022-12-20T12:46:35.531Z,14.33
2022-12-20T12:49:22.832Z,14.23
2022-12-20T12:51:54.003Z,15.60
2022-12-20T12:54:29.477Z,14.97
2022-12-20T12:57:22.896Z,15.70
2022-12-20T12:59:51.979Z,14.37
2022-12-20T13:02:25.168Z,14.77
2022-12-20T13:05:07.102Z,15.70
2022-12-20T13:07:35.187Z,15.43
2022-12-20T13:10:25.232Z,15.17
2022-12-20T13:12:52.873Z,14.13
2022-12-20T13:15:22.782Z,16.20
2022-12-20T13:18:12.082Z,15.13
2022-12-20T13:20:39.640Z,15.07
2022-12-20T13:23:12.754Z,14.97
2022-12-20T13:25:46.631Z,16.20
2022-12-20T13:28:17.084Z,15.53
2022-12-20T13:30:46.575Z,14.97
2022-12-20T13:33:45.276Z,14.63
2022-12-20T13:36:12.345Z,15.33
2022-12-20T13:38:45.091Z,15.73
2022-12-20T13:41:39.904Z,16.30
2022-12-20T13:44:16.039Z,16.00
2022-12-20T13:47:03.217Z,15.50
2022-12-20T13:49:40.581Z,16.07
2022-12-20T13:52:33.688Z,15.17
2022-12-20T13:55:21.721Z,15.93
2022-12-20T13:57:49.095Z,15.10
2022-12-20T14:00:27.075Z,14.43
2022-12-20T14:02:55.051Z,14.77
2022-12-20T14:05:26.857Z,15.07
2022-12-20T14:08:16.715Z,14.53
2022-12-20T14:10:43.836Z,15.43
2022-12-20T14:13:21.637Z,15.57
2022-12-20T14:15:49.632Z,14.50
2022-12-20T14:18:21.718Z,15.67
2022-12-20T14:21:02.980Z,16.03
2022-12-20T14:23:41.512Z,15.60
2022-12-20T14:26:44.726Z,15.73
2022-12-20T14:29:30.044Z,15.70
2022-12-20T14:31:57.342Z,16.07
2022-12-20T14:34:35.275Z,17.77
2022-12-20T14:37:24.864Z,17.27
2022-12-20T14:40:19.475Z,17.53
2022-12-20T14:42:46.779Z,18.43
2022-12-20T14:45:14.108Z,16.83
2022-12-20T14:48:09.499Z,15.67
2022-12-20T14:50:40.832Z,15.37
2022-12-20T14:53:21.352Z,16.23
2022-12-20T14:55:49.313Z,15.80
2022-12-20T14:58:34.463Z,17.50
2022-12-20T15:01:27.206Z,16.40
2022-12-20T15:03:57.775Z,16.57
2022-12-20T15:06:41.544Z,17.17
2022-12-20T15:09:08.648Z,17.73
2022-12-20T15:11:37.930Z,23.23
2022-12-20T15:14:37.671Z,23.53
2022-12-20T15:17:13.315Z,19.60
2022-12-20T15:19:42.828Z,16.67
2022-12-20T15:22:17.661Z,18.10
2022-12-20T15:24:44.794Z,18.20
2022-12-20T15:27:15.108Z,16.97
2022-12-20T15:29:43.318Z,15.90
2022-12-20T15:32:28.359Z,17.63
2022-12-20T15:34:55.791Z,16.93
2022-12-20T15:37:23.006Z,17.13
2022-12-20T15:39:50.134Z,16.43
2022-12-20T15:42:20.113Z,17.17
2022-12-20T15:44:47.541Z,16.83
2022-12-20T15:47:16.143Z,16.97
2022-12-20T15:49:49.732Z,18.77
2022-12-20T15:52:22.376Z,18.10
2022-12-20T15:54:50.705Z,21.67
2022-12-20T15:57:17.891Z,21.03
2022-12-20T16:00:02.315Z,19.63
2022-12-20T16:02:38.938Z,16.87
2022-12-20T16:05:06.662Z,19.00
2022-12-20T16:07:33.749Z,18.73
2022-12-20T16:10:00.843Z,18.27
2022-12-20T16:12:34.220Z,17.70
2022-12-20T16:15:03.380Z,18.47
2022-12-20T16:17:30.540Z,17.93
2022-12-20T16:19:57.642Z,18.43
2022-12-20T16:22:26.400Z,18.17
2022-12-20T16:24:53.763Z,16.97
2022-12-20T16:27:21.144Z,16.80
2022-12-20T16:29:48.274Z,17.27
2022-12-20T16:32:21.958Z,16.10
2022-12-20T16:34:51.144Z,17.03
2022-12-20T16:37:19.013Z,17.27
2022-12-20T16:39:46.104Z,16.70
2022-12-20T16:42:21.001Z,17.77
2022-12-20T16:44:52.633Z,16.17
2022-12-20T16:47:19.792Z,16.03
2022-12-20T16:49:52.233Z,16.20
2022-12-20T16:52:22.680Z,16.87
2022-12-20T16:54:51.009Z,17.63
2022-12-20T16:57:18.174Z,15.93
2022-12-20T16:59:45.314Z,17.03
2022-12-20T17:02:29.769Z,15.93
2022-12-20T17:04:58.692Z,15.83
2022-12-20T17:07:26.021Z,16.30
2022-12-20T17:09:54.313Z,16.53
2022-12-20T17:12:23.061Z,14.70
2022-12-20T17:14:50.141Z,15.50
2022-12-20T17:17:17.651Z,16.47
2022-12-20T17:19:44.929Z,16.70
2022-12-20T17:24:57.606Z,15.97
2022-12-20T17:27:24.962Z,17.23
2022-12-20T17:29:52.295Z,17.37
2022-12-20T17:32:25.617Z,18.10
2022-12-20T17:34:53.761Z,19.30
2022-12-20T17:37:21.585Z,20.47
2022-12-20T17:39:49.256Z,20.33
2022-12-20T17:42:17.222Z,16.23
2022-12-20T17:44:46.372Z,15.07
2022-12-20T17:47:13.780Z,17.30
2022-12-20T17:49:40.925Z,16.50
2022-12-20T17:52:15.577Z,16.63
2022-12-20T17:54:43.009Z,16.27
2022-12-20T17:57:15.098Z,17.30
2022-12-20T17:59:42.714Z,17.33
2022-12-20T18:02:25.275Z,17.07
2022-12-20T18:04:53.291Z,16.57
2022-12-20T18:07:20.679Z,16.23
2022-12-20T18:09:49.999Z,16.10
2022-12-20T18:12:18.170Z,17.83
2022-12-20T18:14:45.305Z,17.10
2022-12-20T18:17:12.491Z,19.63
2022-12-20T18:19:40.931Z,20.27
2022-12-20T18:22:08.053Z,20.20
2022-12-20T18:24:35.264Z,19.27
2022-12-20T18:27:02.506Z,17.10
2022-12-20T18:29:29.767Z,15.17
2022-12-20T18:31:57.459Z,15.70
2022-12-20T18:34:24.737Z,14.97
2022-12-20T18:36:51.831Z,15.13
2022-12-20T18:39:19.858Z,18.73
2022-12-20T18:41:48.334Z,17.37
2022-12-20T18:44:15.530Z,16.27
2022-12-20T18:46:42.613Z,15.90
2022-12-20T18:49:10.065Z,16.00
2022-12-20T18:51:37.616Z,16.50
2022-12-20T18:54:07.614Z,15.43
2022-12-20T18:56:40.655Z,16.80
2022-12-20T18:59:11.808Z,16.77
2022-12-20T19:01:42.403Z,16.73
2022-12-20T19:04:10.449Z,15.70
2022-12-20T19:06:38.009Z,15.63
2022-12-20T19:09:13.297Z,16.53
2022-12-20T19:11:41.993Z,15.83
2022-12-20T19:14:11.219Z,16.50
2022-12-20T19:16:39.927Z,16.70
2022-12-20T19:19:08.933Z,15.83
2022-12-20T19:21:38.240Z,16.13
2022-12-20T19:24:07.993Z,15.77
2022-12-20T19:26:36.828Z,17.17
2022-12-20T19:29:05.340Z,20.27
2022-12-20T19:31:36.319Z,21.33
2022-12-20T19:34:07.907Z,19.30
2022-12-20T19:36:39.626Z,20.43
2022-12-20T19:39:14.352Z,18.97
2022-12-20T19:41:41.406Z,16.70
2022-12-20T19:44:09.463Z,17.00
2022-12-20T19:46:36.684Z,22.73
2022-12-20T19:49:04.054Z,24.27
2022-12-20T19:51:31.467Z,17.33
2022-12-20T19:53:59.752Z,15.73
2022-12-20T19:56:33.554Z,15.37
2022-12-20T19:59:02.371Z,15.43
2022-12-20T20:01:29.943Z,16.43
2022-12-20T20:04:00.225Z,19.27
2022-12-20T20:06:28.369Z,19.23
2022-12-20T20:08:59.977Z,18.60
2022-12-20T20:11:28.103Z,19.00
2022-12-20T20:13:56.220Z,19.20
2022-12-20T20:16:23.964Z,17.43
2022-12-20T20:18:51.520Z,17.50
2022-12-20T20:21:22.634Z,19.73
2022-12-20T20:23:52.466Z,20.07
2022-12-20T20:26:25.161Z,20.93
2022-12-20T20:28:53.065Z,21.23
2022-12-20T20:31:21.638Z,20.47
2022-12-20T20:33:49.730Z,20.60
2022-12-20T20:36:21.096Z,22.27
2022-12-20T20:38:49.739Z,23.10
2022-12-20T20:41:16.937Z,19.03
2022-12-20T20:43:44.699Z,18.00
2022-12-20T20:46:14.813Z,18.83
2022-12-20T20:48:42.934Z,19.40
2022-12-20T20:51:11.105Z,17.10
2022-12-20T20:53:38.216Z,16.13
2022-12-20T20:56:07.186Z,16.00
2022-12-20T20:58:35.476Z,16.17
2022-12-20T21:01:05.696Z,15.33
2022-12-20T21:03:33.249Z,16.00
2022-12-20T21:06:38.683Z,18.60
2022-12-20T21:08:47.877Z,18.20
2022-12-20T21:11:15.614Z,16.43
2022-12-20T21:13:43.082Z,20.47
2022-12-20T21:16:16.140Z,25.20
2022-12-20T21:18:43.348Z,23.10
2022-12-20T21:21:13.212Z,25.60
2022-12-20T21:23:46.367Z,24.30
2022-12-20T21:26:15.596Z,25.60
2022-12-20T21:28:43.930Z,24.13
2022-12-20T21:31:15.484Z,23.00
2022-12-20T21:33:44.428Z,22.97
2022-12-20T21:36:18.064Z,23.27
2022-12-20T21:38:54.483Z,22.80
2022-12-20T21:41:24.231Z,22.53
2022-12-20T21:43:54.621Z,23.60
2022-12-20T21:46:21.758Z,21.60
2022-12-20T21:48:48.866Z,23.27
2022-12-20T21:51:22.952Z,21.17
2022-12-20T21:53:54.158Z,19.00
2022-12-20T21:56:22.528Z,21.37
2022-12-20T21:58:50.968Z,22.50
2022-12-20T22:01:22.647Z,22.43
2022-12-20T22:03:52.430Z,18.93
2022-12-20T22:06:20.119Z,16.30
2022-12-20T22:08:47.509Z,24.67
2022-12-20T22:11:18.209Z,22.90
2022-12-20T22:13:46.170Z,23.73
2022-12-20T22:16:21.030Z,24.70
2022-12-20T22:18:50.739Z,41.77
2022-12-20T22:21:20.649Z,31.80
2022-12-20T22:23:48.097Z,29.77
2022-12-20T22:26:19.569Z,22.73
2022-12-20T22:28:56.715Z,24.87
2022-12-20T22:31:27.288Z,21.77
2022-12-20T22:33:56.008Z,21.63
2022-12-20T22:36:23.526Z,19.80
2022-12-20T22:38:55.719Z,17.47
2022-12-20T22:41:33.997Z,17.63
2022-12-20T22:44:01.626Z,19.13
2022-12-20T22:49:18.751Z,17.40
2022-12-20T22:51:52.512Z,18.77
2022-12-20T22:54:29.723Z,18.17
2022-12-20T22:56:56.824Z,18.20
2022-12-20T22:59:24.162Z,20.33
2022-12-20T23:01:51.475Z,18.63
2022-12-20T23:04:18.704Z,18.63
2022-12-20T23:06:45.757Z,17.97
2022-12-20T23:09:12.898Z,17.27
2022-12-20T23:11:58.285Z,16.93
2022-12-20T23:14:43.524Z,17.37
2022-12-20T23:17:11.294Z,16.30
2022-12-20T23:19:57.310Z,16.13
2022-12-20T23:22:38.592Z,17.73
2022-12-20T23:25:09.706Z,16.53
2022-12-20T23:27:37.725Z,17.03
2022-12-20T23:30:08.520Z,15.73
2022-12-20T23:32:35.872Z,16.17
2022-12-20T23:35:10.008Z,15.47
2022-12-20T23:37:39.509Z,15.13
2022-12-20T23:40:08.397Z,16.60
2022-12-20T23:42:35.513Z,15.40
2022-12-20T23:45:02.593Z,17.97
2022-12-20T23:47:31.146Z,17.30
2022-12-20T23:49:58.209Z,15.93
2022-12-20T23:52:25.281Z,17.13
2022-12-20T23:54:52.308Z,16.40
2022-12-20T23:57:19.448Z,17.30
2022-12-20T23:59:46.488Z,16.10
